sensor_id;sensor_type;location;lat;lon;timestamp;pressure;altitude;pressure_sealevel;temperature;humidity
75640;BME280;64233;51.486;6.332;2023-11-21T00:00:48;96612.06;;;5.48;100.00
75640;BME280;64233;51.486;6.332;2023-11-21T00:03:13;96574.66;;;5.53;100.00
75640;BME280;64233;51.486;6.332;2023-11-21T00:05:40;96532.53;;;5.55;100.00
75640;BME280;64233;51.486;6.332;2023-11-21T00:08:07;96492.31;;;5.57;100.00
75640;BME280;64233;51.486;6.332;2023-11-21T00:10:34;96446.31;;;5.56;100.00
75640;BME280;64233;51.486;6.332;2023-11-21T00:12:59;96387.22;;;5.50;100.00
75640;BME280;64233;51.486;6.332;2023-11-21T00:15:24;96354.50;;;5.50;100.00
75640;BME280;64233;51.486;6.332;2023-11-21T00:17:50;96319.75;;;5.55;100.00
75640;BME280;64233;51.486;6.332;2023-11-21T00:20:15;96286.84;;;5.60;100.00
75640;BME280;64233;51.486;6.332;2023-11-21T00:22:41;96242.09;;;5.62;100.00
75640;BME280;64233;51.486;6.332;2023-11-21T00:25:07;96255.38;;;5.62;100.00
75640;BME280;64233;51.486;6.332;2023-11-21T00:27:34;96213.59;;;5.62;100.00
75640;BME280;64233;51.486;6.332;2023-11-21T00:30:00;96215.00;;;5.60;100.00
75640;BME280;64233;51.486;6.332;2023-11-21T00:32:25;96209.69;;;5.60;100.00
75640;BME280;64233;51.486;6.332;2023-11-21T00:34:50;96224.88;;;5.59;100.00
75640;BME280;64233;51.486;6.332;2023-11-21T00:37:16;96183.09;;;5.60;100.00
75640;BME280;64233;51.486;6.332;2023-11-21T00:39:41;96301.69;;;5.61;100.00
75640;BME280;64233;51.486;6.332;2023-11-21T00:42:06;96213.72;;;5.66;100.00
75640;BME280;64233;51.486;6.332;2023-11-21T00:44:31;96092.25;;;5.70;100.00
75640;BME280;64233;51.486;6.332;2023-11-21T00:46:58;96087.34;;;5.72;100.00
75640;BME280;64233;51.486;6.332;2023-11-21T00:49:24;96080.69;;;5.78;100.00
75640;BME280;64233;51.486;6.332;2023-11-21T00:51:49;96048.09;;;5.81;100.00
75640;BME280;64233;51.486;6.332;2023-11-21T00:54:14;96022.81;;;5.88;100.00
75640;BME280;64233;51.486;6.332;2023-11-21T00:56:42;95989.44;;;5.90;100.00
75640;BME280;64233;51.486;6.332;2023-11-21T00:59:07;95944.63;;;5.92;100.00
75640;BME280;64233;51.486;6.332;2023-11-21T01:01:32;95916.91;;;5.93;100.00
75640;BME280;64233;51.486;6.332;2023-11-21T01:03:57;95953.06;;;5.94;100.00
75640;BME280;64233;51.486;6.332;2023-11-21T01:06:23;95947.41;;;5.96;100.00
75640;BME280;64233;51.486;6.332;2023-11-21T01:08:48;95930.31;;;5.97;100.00
75640;BME280;64233;51.486;6.332;2023-11-21T01:11:13;95936.84;;;5.99;100.00
75640;BME280;64233;51.486;6.332;2023-11-21T01:13:39;95909.25;;;6.04;100.00
75640;BME280;64233;51.486;6.332;2023-11-21T01:16:06;95890.69;;;6.08;100.00
75640;BME280;64233;51.486;6.332;2023-11-21T01:18:32;95839.44;;;6.11;100.00
75640;BME280;64233;51.486;6.332;2023-11-21T01:20:57;95852.84;;;6.14;100.00
75640;BME280;64233;51.486;6.332;2023-11-21T01:23:22;95822.09;;;6.17;100.00
75640;BME280;64233;51.486;6.332;2023-11-21T01:25:48;95832.41;;;6.18;100.00
75640;BME280;64233;51.486;6.332;2023-11-21T01:28:13;95801.66;;;6.21;100.00
75640;BME280;64233;51.486;6.332;2023-11-21T01:30:38;95780.03;;;6.23;100.00
75640;BME280;64233;51.486;6.332;2023-11-21T01:33:04;95875.94;;;6.26;100.00
75640;BME280;64233;51.486;6.332;2023-11-21T01:35:29;95786.88;;;6.24;100.00
75640;BME280;64233;51.486;6.332;2023-11-21T01:37:55;95761.47;;;6.26;100.00
75640;BME280;64233;51.486;6.332;2023-11-21T01:40:20;95767.56;;;6.27;100.00
75640;BME280;64233;51.486;6.332;2023-11-21T01:42:46;95770.66;;;6.29;100.00
75640;BME280;64233;51.486;6.332;2023-11-21T01:45:12;95759.31;;;6.32;100.00
75640;BME280;64233;51.486;6.332;2023-11-21T01:47:38;95698.84;;;6.32;100.00
75640;BME280;64233;51.486;6.332;2023-11-21T01:50:06;95665.41;;;6.35;100.00
75640;BME280;64233;51.486;6.332;2023-11-21T01:52:32;95685.94;;;6.34;100.00
75640;BME280;64233;51.486;6.332;2023-11-21T01:54:59;95685.59;;;6.36;100.00
75640;BME280;64233;51.486;6.332;2023-11-21T01:57:25;95689.38;;;6.35;100.00
75640;BME280;64233;51.486;6.332;2023-11-21T01:59:51;95721.78;;;6.37;100.00
75640;BME280;64233;51.486;6.332;2023-11-21T02:02:19;95739.31;;;6.38;100.00
75640;BME280;64233;51.486;6.332;2023-11-21T02:04:44;95715.34;;;6.38;100.00
75640;BME280;64233;51.486;6.332;2023-11-21T02:07:09;95728.31;;;6.40;100.00
75640;BME280;64233;51.486;6.332;2023-11-21T02:09:35;95936.78;;;6.40;100.00
75640;BME280;64233;51.486;6.332;2023-11-21T02:12:03;96068.06;;;6.41;100.00
75640;BME280;64233;51.486;6.332;2023-11-21T02:14:30;96031.09;;;6.39;100.00
75640;BME280;64233;51.486;6.332;2023-11-21T02:16:56;96064.97;;;6.38;100.00
75640;BME280;64233;51.486;6.332;2023-11-21T02:19:22;96056.63;;;6.40;100.00
75640;BME280;64233;51.486;6.332;2023-11-21T02:21:51;96087.47;;;6.41;100.00
75640;BME280;64233;51.486;6.332;2023-11-21T02:24:19;95995.38;;;6.40;100.00
75640;BME280;64233;51.486;6.332;2023-11-21T02:26:44;96120.56;;;6.40;100.00
75640;BME280;64233;51.486;6.332;2023-11-21T02:29:11;96247.28;;;6.41;100.00
75640;BME280;64233;51.486;6.332;2023-11-21T02:31:37;96121.31;;;6.41;100.00
75640;BME280;64233;51.486;6.332;2023-11-21T02:34:11;96137.28;;;6.41;100.00
75640;BME280;64233;51.486;6.332;2023-11-21T02:36:38;96082.50;;;6.40;100.00
75640;BME280;64233;51.486;6.332;2023-11-21T02:39:03;96040.66;;;6.40;100.00
75640;BME280;64233;51.486;6.332;2023-11-21T02:41:29;96022.78;;;6.41;100.00
75640;BME280;64233;51.486;6.332;2023-11-21T02:43:54;96014.03;;;6.40;100.00
75640;BME280;64233;51.486;6.332;2023-11-21T02:46:19;96005.28;;;6.40;100.00
75640;BME280;64233;51.486;6.332;2023-11-21T02:48:44;96032.59;;;6.36;100.00
75640;BME280;64233;51.486;6.332;2023-11-21T02:51:10;95935.56;;;6.37;100.00
75640;BME280;64233;51.486;6.332;2023-11-21T02:53:35;95940.91;;;6.37;100.00
75640;BME280;64233;51.486;6.332;2023-11-21T02:56:00;95969.09;;;6.38;100.00
75640;BME280;64233;51.486;6.332;2023-11-21T02:58:26;95957.16;;;6.32;100.00
75640;BME280;64233;51.486;6.332;2023-11-21T03:00:51;95936.19;;;6.31;100.00
75640;BME280;64233;51.486;6.332;2023-11-21T03:03:17;95909.22;;;6.32;100.00
75640;BME280;64233;51.486;6.332;2023-11-21T03:05:42;95933.84;;;6.29;100.00
75640;BME280;64233;51.486;6.332;2023-11-21T03:08:07;95947.94;;;6.30;100.00
75640;BME280;64233;51.486;6.332;2023-11-21T03:10:33;95974.13;;;6.28;100.00
75640;BME280;64233;51.486;6.332;2023-11-21T03:12:58;95990.09;;;6.28;100.00
75640;BME280;64233;51.486;6.332;2023-11-21T03:15:23;96006.00;;;6.24;100.00
75640;BME280;64233;51.486;6.332;2023-11-21T03:17:49;96015.09;;;6.23;100.00
75640;BME280;64233;51.486;6.332;2023-11-21T03:20:14;96004.66;;;6.18;100.00
75640;BME280;64233;51.486;6.332;2023-11-21T03:22:41;96026.56;;;6.11;100.00
75640;BME280;64233;51.486;6.332;2023-11-21T03:25:07;96034.97;;;6.13;100.00
75640;BME280;64233;51.486;6.332;2023-11-21T03:27:35;96045.72;;;6.17;100.00
75640;BME280;64233;51.486;6.332;2023-11-21T03:30:01;96028.31;;;6.19;100.00
75640;BME280;64233;51.486;6.332;2023-11-21T03:32:28;96128.13;;;6.26;100.00
75640;BME280;64233;51.486;6.332;2023-11-21T03:34:56;96074.88;;;6.26;100.00
75640;BME280;64233;51.486;6.332;2023-11-21T03:37:22;96120.56;;;6.28;100.00
75640;BME280;64233;51.486;6.332;2023-11-21T03:39:47;96086.41;;;6.30;100.00
75640;BME280;64233;51.486;6.332;2023-11-21T03:42:12;96242.50;;;6.34;100.00
75640;BME280;64233;51.486;6.332;2023-11-21T03:44:38;96122.00;;;6.37;100.00
75640;BME280;64233;51.486;6.332;2023-11-21T03:47:03;96121.78;;;6.43;100.00
75640;BME280;64233;51.486;6.332;2023-11-21T03:49:28;96172.81;;;6.45;100.00
75640;BME280;64233;51.486;6.332;2023-11-21T03:51:54;96156.06;;;6.44;100.00
75640;BME280;64233;51.486;6.332;2023-11-21T03:54:19;96205.91;;;6.44;100.00
75640;BME280;64233;51.486;6.332;2023-11-21T03:56:45;96279.34;;;6.45;100.00
75640;BME280;64233;51.486;6.332;2023-11-21T03:59:10;96253.03;;;6.43;100.00
75640;BME280;64233;51.486;6.332;2023-11-21T04:01:36;96285.81;;;6.44;100.00
75640;BME280;64233;51.486;6.332;2023-11-21T04:04:02;96322.75;;;6.45;100.00
75640;BME280;64233;51.486;6.332;2023-11-21T04:06:27;96340.59;;;6.45;100.00
75640;BME280;64233;51.486;6.332;2023-11-21T04:08:52;96342.38;;;6.41;100.00
75640;BME280;64233;51.486;6.332;2023-11-21T04:11:18;96339.84;;;6.44;100.00
75640;BME280;64233;51.486;6.332;2023-11-21T04:13:43;96374.13;;;6.46;100.00
75640;BME280;64233;51.486;6.332;2023-11-21T04:16:09;96390.88;;;6.46;100.00
75640;BME280;64233;51.486;6.332;2023-11-21T04:18:38;96450.94;;;6.44;100.00
75640;BME280;64233;51.486;6.332;2023-11-21T04:21:05;96484.78;;;6.43;100.00
75640;BME280;64233;51.486;6.332;2023-11-21T04:23:30;96458.59;;;6.45;100.00
75640;BME280;64233;51.486;6.332;2023-11-21T04:25:57;96506.56;;;6.45;100.00
75640;BME280;64233;51.486;6.332;2023-11-21T04:28:23;96529.41;;;6.46;100.00
75640;BME280;64233;51.486;6.332;2023-11-21T04:30:49;96551.38;;;6.43;100.00
75640;BME280;64233;51.486;6.332;2023-11-21T04:33:15;96460.38;;;6.41;100.00
75640;BME280;64233;51.486;6.332;2023-11-21T04:35:41;96514.75;;;6.40;100.00
75640;BME280;64233;51.486;6.332;2023-11-21T04:38:06;96533.06;;;6.42;100.00
75640;BME280;64233;51.486;6.332;2023-11-21T04:40:31;96544.19;;;6.44;100.00
75640;BME280;64233;51.486;6.332;2023-11-21T04:42:57;96566.44;;;6.39;100.00
75640;BME280;64233;51.486;6.332;2023-11-21T04:45:22;96644.16;;;6.41;100.00
75640;BME280;64233;51.486;6.332;2023-11-21T04:47:47;96666.44;;;6.36;100.00
75640;BME280;64233;51.486;6.332;2023-11-21T04:50:12;96698.69;;;6.35;100.00
75640;BME280;64233;51.486;6.332;2023-11-21T04:52:38;96746.66;;;6.35;100.00
75640;BME280;64233;51.486;6.332;2023-11-21T04:55:03;96789.41;;;6.38;100.00
75640;BME280;64233;51.486;6.332;2023-11-21T04:57:29;96816.69;;;6.35;100.00
75640;BME280;64233;51.486;6.332;2023-11-21T04:59:54;97003.91;;;6.36;100.00
75640;BME280;64233;51.486;6.332;2023-11-21T05:02:19;96852.09;;;6.36;100.00
75640;BME280;64233;51.486;6.332;2023-11-21T05:04:46;96835.34;;;6.35;100.00
75640;BME280;64233;51.486;6.332;2023-11-21T05:07:11;96803.69;;;6.34;100.00
75640;BME280;64233;51.486;6.332;2023-11-21T05:09:41;96839.88;;;6.35;100.00
75640;BME280;64233;51.486;6.332;2023-11-21T05:12:07;96814.69;;;6.32;100.00
75640;BME280;64233;51.486;6.332;2023-11-21T05:14:32;96799.03;;;6.31;100.00
75640;BME280;64233;51.486;6.332;2023-11-21T05:16:58;96979.00;;;6.32;100.00
75640;BME280;64233;51.486;6.332;2023-11-21T05:19:24;96988.13;;;6.31;100.00
75640;BME280;64233;51.486;6.332;2023-11-21T05:21:49;96929.34;;;6.36;100.00
75640;BME280;64233;51.486;6.332;2023-11-21T05:24:14;96926.06;;;6.30;100.00
75640;BME280;64233;51.486;6.332;2023-11-21T05:26:40;96863.22;;;6.29;100.00
75640;BME280;64233;51.486;6.332;2023-11-21T05:29:05;96826.28;;;6.28;100.00
75640;BME280;64233;51.486;6.332;2023-11-21T05:31:31;96825.50;;;6.27;100.00
75640;BME280;64233;51.486;6.332;2023-11-21T05:33:56;96804.19;;;6.27;100.00
75640;BME280;64233;51.486;6.332;2023-11-21T05:36:21;96813.44;;;6.30;100.00
75640;BME280;64233;51.486;6.332;2023-11-21T05:38:46;96801.53;;;6.27;100.00
75640;BME280;64233;51.486;6.332;2023-11-21T05:41:12;96820.50;;;6.26;100.00
75640;BME280;64233;51.486;6.332;2023-11-21T05:43:39;96834.13;;;6.24;100.00
75640;BME280;64233;51.486;6.332;2023-11-21T05:46:04;96848.69;;;6.27;100.00
75640;BME280;64233;51.486;6.332;2023-11-21T05:48:32;96830.06;;;6.27;100.00
75640;BME280;64233;51.486;6.332;2023-11-21T05:50:57;96830.81;;;6.27;100.00
75640;BME280;64233;51.486;6.332;2023-11-21T05:53:22;96854.34;;;6.25;100.00
75640;BME280;64233;51.486;6.332;2023-11-21T05:55:47;96859.97;;;6.24;100.00
75640;BME280;64233;51.486;6.332;2023-11-21T05:58:13;96901.47;;;6.25;100.00
75640;BME280;64233;51.486;6.332;2023-11-21T06:00:38;96908.69;;;6.24;100.00
75640;BME280;64233;51.486;6.332;2023-11-21T06:03:04;96898.81;;;6.25;100.00
75640;BME280;64233;51.486;6.332;2023-11-21T06:05:32;96894.41;;;6.29;100.00
75640;BME280;64233;51.486;6.332;2023-11-21T06:07:58;96938.13;;;6.28;100.00
75640;BME280;64233;51.486;6.332;2023-11-21T06:10:24;96946.13;;;6.28;100.00
75640;BME280;64233;51.486;6.332;2023-11-21T06:12:49;96926.25;;;6.25;100.00
75640;BME280;64233;51.486;6.332;2023-11-21T06:15:15;96896.47;;;6.23;100.00
75640;BME280;64233;51.486;6.332;2023-11-21T06:17:42;96892.06;;;6.27;100.00
75640;BME280;64233;51.486;6.332;2023-11-21T06:20:09;96911.69;;;6.23;100.00
75640;BME280;64233;51.486;6.332;2023-11-21T06:22:38;96912.13;;;6.25;100.00
75640;BME280;64233;51.486;6.332;2023-11-21T06:25:05;96902.56;;;6.24;100.00
75640;BME280;64233;51.486;6.332;2023-11-21T06:27:36;96915.59;;;6.25;100.00
75640;BME280;64233;51.486;6.332;2023-11-21T06:30:03;96908.38;;;6.26;100.00
75640;BME280;64233;51.486;6.332;2023-11-21T06:32:29;96921.06;;;6.20;100.00
75640;BME280;64233;51.486;6.332;2023-11-21T06:34:55;96929.84;;;6.20;100.00
75640;BME280;64233;51.486;6.332;2023-11-21T06:37:20;96914.47;;;6.26;100.00
75640;BME280;64233;51.486;6.332;2023-11-21T06:39:49;96937.66;;;6.26;100.00
75640;BME280;64233;51.486;6.332;2023-11-21T06:42:17;96925.63;;;6.19;100.00
75640;BME280;64233;51.486;6.332;2023-11-21T06:44:42;97359.22;;;6.17;100.00
75640;BME280;64233;51.486;6.332;2023-11-21T06:47:08;97230.63;;;6.17;100.00
75640;BME280;64233;51.486;6.332;2023-11-21T06:49:33;97238.75;;;6.20;100.00
75640;BME280;64233;51.486;6.332;2023-11-21T06:51:59;97256.63;;;6.20;100.00
75640;BME280;64233;51.486;6.332;2023-11-21T06:54:26;97209.78;;;6.19;100.00
75640;BME280;64233;51.486;6.332;2023-11-21T06:56:52;97228.91;;;6.21;100.00
75640;BME280;64233;51.486;6.332;2023-11-21T06:59:18;97361.56;;;6.19;100.00
75640;BME280;64233;51.486;6.332;2023-11-21T07:01:43;97174.06;;;6.20;100.00
75640;BME280;64233;51.486;6.332;2023-11-21T07:04:09;97177.19;;;6.22;100.00
75640;BME280;64233;51.486;6.332;2023-11-21T07:06:35;97117.50;;;6.23;100.00
75640;BME280;64233;51.486;6.332;2023-11-21T07:09:00;97128.03;;;6.28;100.00
75640;BME280;64233;51.486;6.332;2023-11-21T07:11:26;97109.22;;;6.25;100.00
75640;BME280;64233;51.486;6.332;2023-11-21T07:13:52;97200.84;;;6.24;100.00
75640;BME280;64233;51.486;6.332;2023-11-21T07:16:18;97252.88;;;6.21;100.00
75640;BME280;64233;51.486;6.332;2023-11-21T07:18:44;97265.88;;;6.23;100.00
75640;BME280;64233;51.486;6.332;2023-11-21T07:21:09;97313.97;;;6.26;100.00
75640;BME280;64233;51.486;6.332;2023-11-21T07:23:37;97278.56;;;6.26;100.00
75640;BME280;64233;51.486;6.332;2023-11-21T07:26:02;97272.94;;;6.27;100.00
75640;BME280;64233;51.486;6.332;2023-11-21T07:28:28;97253.97;;;6.29;100.00
75640;BME280;64233;51.486;6.332;2023-11-21T07:30:54;97326.69;;;6.29;100.00
75640;BME280;64233;51.486;6.332;2023-11-21T07:33:19;97274.38;;;6.33;100.00
75640;BME280;64233;51.486;6.332;2023-11-21T07:35:44;97209.66;;;6.33;100.00
75640;BME280;64233;51.486;6.332;2023-11-21T07:38:10;97197.28;;;6.37;100.00
75640;BME280;64233;51.486;6.332;2023-11-21T07:40:35;97157.66;;;6.35;100.00
75640;BME280;64233;51.486;6.332;2023-11-21T07:43:00;97166.91;;;6.38;100.00
75640;BME280;64233;51.486;6.332;2023-11-21T07:45:26;97208.41;;;6.39;100.00
75640;BME280;64233;51.486;6.332;2023-11-21T07:47:53;97172.22;;;6.38;100.00
75640;BME280;64233;51.486;6.332;2023-11-21T07:50:19;97042.63;;;6.33;100.00
75640;BME280;64233;51.486;6.332;2023-11-21T07:52:45;97064.88;;;6.37;100.00
75640;BME280;64233;51.486;6.332;2023-11-21T07:55:10;97116.59;;;6.36;100.00
75640;BME280;64233;51.486;6.332;2023-11-21T07:57:36;97140.25;;;6.38;100.00
75640;BME280;64233;51.486;6.332;2023-11-21T08:00:02;97166.41;;;6.45;100.00
75640;BME280;64233;51.486;6.332;2023-11-21T08:02:28;97163.16;;;6.48;100.00
75640;BME280;64233;51.486;6.332;2023-11-21T08:04:54;97178.53;;;6.51;100.00
75640;BME280;64233;51.486;6.332;2023-11-21T08:07:21;97204.03;;;6.43;100.00
75640;BME280;64233;51.486;6.332;2023-11-21T08:09:47;97199.19;;;6.45;100.00
75640;BME280;64233;51.486;6.332;2023-11-21T08:12:14;97197.63;;;6.44;100.00
75640;BME280;64233;51.486;6.332;2023-11-21T08:14:39;97178.66;;;6.46;100.00
75640;BME280;64233;51.486;6.332;2023-11-21T08:17:05;97184.63;;;6.51;100.00
75640;BME280;64233;51.486;6.332;2023-11-21T08:19:31;97183.03;;;6.50;100.00
75640;BME280;64233;51.486;6.332;2023-11-21T08:21:58;97179.28;;;6.51;100.00
75640;BME280;64233;51.486;6.332;2023-11-21T08:24:24;97156.41;;;6.50;100.00
75640;BME280;64233;51.486;6.332;2023-11-21T08:26:49;97162.84;;;6.49;100.00
75640;BME280;64233;51.486;6.332;2023-11-21T08:29:16;97161.13;;;6.53;100.00
75640;BME280;64233;51.486;6.332;2023-11-21T08:31:41;97140.28;;;6.55;100.00
75640;BME280;64233;51.486;6.332;2023-11-21T08:34:07;97151.88;;;6.60;100.00
75640;BME280;64233;51.486;6.332;2023-11-21T08:36:33;97160.31;;;6.62;100.00
75640;BME280;64233;51.486;6.332;2023-11-21T08:38:59;97146.84;;;6.58;100.00
75640;BME280;64233;51.486;6.332;2023-11-21T08:41:24;97158.75;;;6.52;100.00
75640;BME280;64233;51.486;6.332;2023-11-21T08:43:50;97154.22;;;6.52;100.00
75640;BME280;64233;51.486;6.332;2023-11-21T08:46:16;97133.69;;;6.53;100.00
75640;BME280;64233;51.486;6.332;2023-11-21T08:48:43;97151.38;;;6.58;100.00
75640;BME280;64233;51.486;6.332;2023-11-21T08:51:10;97160.31;;;6.62;100.00
75640;BME280;64233;51.486;6.332;2023-11-21T08:53:36;97153.13;;;6.62;100.00
75640;BME280;64233;51.486;6.332;2023-11-21T08:56:03;97133.69;;;6.62;100.00
75640;BME280;64233;51.486;6.332;2023-11-21T08:58:29;97113.16;;;6.71;100.00
75640;BME280;64233;51.486;6.332;2023-11-21T09:00:56;97118.63;;;6.75;100.00
75640;BME280;64233;51.486;6.332;2023-11-21T09:03:21;97091.81;;;6.71;100.00
75640;BME280;64233;51.486;6.332;2023-11-21T09:05:46;97090.75;;;6.72;100.00
75640;BME280;64233;51.486;6.332;2023-11-21T09:08:12;97082.56;;;6.77;100.00
75640;BME280;64233;51.486;6.332;2023-11-21T09:10:37;97059.34;;;6.86;100.00
75640;BME280;64233;51.486;6.332;2023-11-21T09:13:04;97170.69;;;6.81;100.00
75640;BME280;64233;51.486;6.332;2023-11-21T09:15:29;97135.25;;;6.89;100.00
75640;BME280;64233;51.486;6.332;2023-11-21T09:17:55;97137.59;;;6.91;100.00
75640;BME280;64233;51.486;6.332;2023-11-21T09:20:21;97095.25;;;6.89;100.00
75640;BME280;64233;51.486;6.332;2023-11-21T09:22:48;97093.06;;;6.91;100.00
75640;BME280;64233;51.486;6.332;2023-11-21T09:25:14;97077.06;;;6.91;100.00
75640;BME280;64233;51.486;6.332;2023-11-21T09:27:40;97084.28;;;6.91;100.00
75640;BME280;64233;51.486;6.332;2023-11-21T09:30:06;97166.94;;;6.91;100.00
75640;BME280;64233;51.486;6.332;2023-11-21T09:32:34;97144.66;;;6.95;100.00
75640;BME280;64233;51.486;6.332;2023-11-21T09:35:02;97109.34;;;6.98;100.00
75640;BME280;64233;51.486;6.332;2023-11-21T09:37:27;97115.94;;;7.01;100.00
75640;BME280;64233;51.486;6.332;2023-11-21T09:39:53;97089.44;;;6.96;100.00
75640;BME280;64233;51.486;6.332;2023-11-21T09:42:25;97106.22;;;6.96;100.00
75640;BME280;64233;51.486;6.332;2023-11-21T09:45:06;97094.13;;;6.99;100.00
75640;BME280;64233;51.486;6.332;2023-11-21T09:47:38;97054.13;;;7.07;100.00
75640;BME280;64233;51.486;6.332;2023-11-21T09:50:04;97079.22;;;7.06;100.00
75640;BME280;64233;51.486;6.332;2023-11-21T09:52:45;97063.19;;;7.15;100.00
75640;BME280;64233;51.486;6.332;2023-11-21T09:55:14;97114.47;;;7.21;100.00
75640;BME280;64233;51.486;6.332;2023-11-21T09:57:41;97075.28;;;7.13;100.00
75640;BME280;64233;51.486;6.332;2023-11-21T10:00:07;97080.00;;;7.07;100.00
75640;BME280;64233;51.486;6.332;2023-11-21T10:02:37;97098.97;;;7.05;100.00
75640;BME280;64233;51.486;6.332;2023-11-21T10:05:03;97395.31;;;7.13;100.00
75640;BME280;64233;51.486;6.332;2023-11-21T10:07:30;97729.09;;;7.20;100.00
75640;BME280;64233;51.486;6.332;2023-11-21T10:09:57;97256.78;;;7.25;100.00
75640;BME280;64233;51.486;6.332;2023-11-21T10:12:26;97087.94;;;7.33;100.00
75640;BME280;64233;51.486;6.332;2023-11-21T10:14:51;97225.09;;;7.32;100.00
75640;BME280;64233;51.486;6.332;2023-11-21T10:17:20;97136.09;;;7.37;100.00
75640;BME280;64233;51.486;6.332;2023-11-21T10:19:48;96995.81;;;7.36;100.00
75640;BME280;64233;51.486;6.332;2023-11-21T10:22:17;97177.06;;;7.32;100.00
75640;BME280;64233;51.486;6.332;2023-11-21T10:24:42;97151.63;;;7.35;100.00
75640;BME280;64233;51.486;6.332;2023-11-21T10:27:08;97123.34;;;7.43;100.00
75640;BME280;64233;51.486;6.332;2023-11-21T10:29:34;97130.88;;;7.49;100.00
75640;BME280;64233;51.486;6.332;2023-11-21T10:32:02;97129.78;;;7.50;100.00
75640;BME280;64233;51.486;6.332;2023-11-21T10:34:27;97151.69;;;7.65;100.00
75640;BME280;64233;51.486;6.332;2023-11-21T10:36:53;97125.06;;;7.56;100.00
75640;BME280;64233;51.486;6.332;2023-11-21T10:39:19;97033.72;;;7.50;100.00
75640;BME280;64233;51.486;6.332;2023-11-21T10:41:49;97097.72;;;7.59;100.00
75640;BME280;64233;51.486;6.332;2023-11-21T10:44:17;97105.56;;;7.64;100.00
75640;BME280;64233;51.486;6.332;2023-11-21T10:46:59;97209.66;;;7.55;100.00
75640;BME280;64233;51.486;6.332;2023-11-21T10:49:26;97194.25;;;7.61;100.00
75640;BME280;64233;51.486;6.332;2023-11-21T10:51:55;97122.03;;;7.66;100.00
75640;BME280;64233;51.486;6.332;2023-11-21T10:54:22;97158.94;;;7.64;100.00
75640;BME280;64233;51.486;6.332;2023-11-21T10:56:49;97232.06;;;7.72;100.00
75640;BME280;64233;51.486;6.332;2023-11-21T10:59:16;97265.22;;;7.80;100.00
75640;BME280;64233;51.486;6.332;2023-11-21T11:01:44;97260.16;;;7.78;100.00
75640;BME280;64233;51.486;6.332;2023-11-21T11:04:11;97266.91;;;7.84;100.00
75640;BME280;64233;51.486;6.332;2023-11-21T11:06:43;97236.13;;;7.87;100.00
75640;BME280;64233;51.486;6.332;2023-11-21T11:09:10;97232.97;;;7.85;100.00
75640;BME280;64233;51.486;6.332;2023-11-21T11:11:39;97216.81;;;7.81;100.00
75640;BME280;64233;51.486;6.332;2023-11-21T11:14:08;97188.41;;;7.76;100.00
75640;BME280;64233;51.486;6.332;2023-11-21T11:16:35;97225.97;;;7.71;100.00
75640;BME280;64233;51.486;6.332;2023-11-21T11:19:02;97275.56;;;7.72;100.00
75640;BME280;64233;51.486;6.332;2023-11-21T11:26:57;97311.53;;;7.66;100.00
75640;BME280;64233;51.486;6.332;2023-11-21T11:29:40;97328.03;;;7.77;100.00
75640;BME280;64233;51.486;6.332;2023-11-21T11:32:16;97330.41;;;7.70;100.00
75640;BME280;64233;51.486;6.332;2023-11-21T11:35:03;97338.22;;;7.75;100.00
75640;BME280;64233;51.486;6.332;2023-11-21T11:37:29;97374.19;;;7.78;100.00
75640;BME280;64233;51.486;6.332;2023-11-21T11:39:55;97370.72;;;7.86;100.00
75640;BME280;64233;51.486;6.332;2023-11-21T11:42:21;97418.94;;;7.81;100.00
75640;BME280;64233;51.486;6.332;2023-11-21T11:44:48;97388.16;;;7.92;100.00
75640;BME280;64233;51.486;6.332;2023-11-21T11:47:26;97363.81;;;7.93;100.00
75640;BME280;64233;51.486;6.332;2023-11-21T11:50:03;97442.53;;;7.87;100.00
75640;BME280;64233;51.486;6.332;2023-11-21T11:52:34;97348.25;;;7.96;100.00
75640;BME280;64233;51.486;6.332;2023-11-21T11:55:01;97371.34;;;8.00;100.00
75640;BME280;64233;51.486;6.332;2023-11-21T11:57:29;97455.22;;;8.08;100.00
75640;BME280;64233;51.486;6.332;2023-11-21T12:02:38;97499.41;;;8.05;100.00
75640;BME280;64233;51.486;6.332;2023-11-21T12:05:11;97576.69;;;8.10;100.00
75640;BME280;64233;51.486;6.332;2023-11-21T12:07:57;97642.22;;;8.08;100.00
75640;BME280;64233;51.486;6.332;2023-11-21T12:10:25;97788.41;;;8.16;100.00
75640;BME280;64233;51.486;6.332;2023-11-21T12:12:53;97903.97;;;8.22;100.00
75640;BME280;64233;51.486;6.332;2023-11-21T12:15:19;97896.13;;;8.25;100.00
75640;BME280;64233;51.486;6.332;2023-11-21T12:17:45;97780.38;;;8.16;100.00
75640;BME280;64233;51.486;6.332;2023-11-21T12:20:13;97959.31;;;8.21;100.00
75640;BME280;64233;51.486;6.332;2023-11-21T12:22:59;99082.91;;;8.05;100.00
75640;BME280;64233;51.486;6.332;2023-11-21T12:25:29;97859.41;;;8.08;100.00
75640;BME280;64233;51.486;6.332;2023-11-21T12:27:57;98049.28;;;8.12;100.00
75640;BME280;64233;51.486;6.332;2023-11-21T12:30:24;98079.78;;;8.11;100.00
75640;BME280;64233;51.486;6.332;2023-11-21T12:32:54;97809.94;;;8.11;100.00
75640;BME280;64233;51.486;6.332;2023-11-21T12:35:22;97889.03;;;8.21;100.00
75640;BME280;64233;51.486;6.332;2023-11-21T12:37:49;97910.66;;;8.10;100.00
75640;BME280;64233;51.486;6.332;2023-11-21T12:40:16;98001.06;;;8.17;100.00
75640;BME280;64233;51.486;6.332;2023-11-21T12:42:43;97842.69;;;8.25;100.00
75640;BME280;64233;51.486;6.332;2023-11-21T12:45:23;97918.19;;;8.31;100.00
75640;BME280;64233;51.486;6.332;2023-11-21T12:47:51;97952.88;;;8.22;100.00
75640;BME280;64233;51.486;6.332;2023-11-21T12:50:21;97945.38;;;8.33;100.00
75640;BME280;64233;51.486;6.332;2023-11-21T12:52:50;97957.28;;;8.27;100.00
75640;BME280;64233;51.486;6.332;2023-11-21T12:55:17;98015.31;;;8.26;100.00
75640;BME280;64233;51.486;6.332;2023-11-21T12:57:51;98001.94;;;8.26;100.00
75640;BME280;64233;51.486;6.332;2023-11-21T13:00:18;98067.16;;;8.25;100.00
75640;BME280;64233;51.486;6.332;2023-11-21T13:02:54;98018.88;;;8.22;100.00
75640;BME280;64233;51.486;6.332;2023-11-21T13:05:33;98046.69;;;8.21;100.00